Barling, Arkansas
Current Conditions -  °F | °C
As of 3:53 PM on Friday 31 Oct 2014 (Local Time) from KFSM Reporting Station
Clear Clear  
Wind Chill: 60°   Ceiling: Unl
Heat Index: 60°   Visibility: 10mi
Dew Point: 30°   Wind: 16mph
Humidity: 32%   Direction: 340°NNW
Pressure: 30.3"   Gusts: NA
Location:  35.33°N, 94.3°W
Report Text: KFSM 312053Z AUTO 34014KT 10SM CLR 16/M01 A3030 RMK AO2 SLP260 T01561011 55008 TSNO
Loading
Personal Weather Stations






























Interactive Weather Map
Tropical Storm Tracking
New forecast layout! Learn more

10-Day Weather Forecast

Advertisements
Track Severe Weather on mobile